McKinley, Ohio
Current Conditions -  °F | °C
As of 10:51 AM on Saturday 22 Nov 2014 (Local Time) from KCAK Reporting Station
Light Rain Light Rain  
Wind Chill: 25°   Ceiling: 400
Heat Index: 34°   Visibility: 2mi
Dew Point: 31°   Wind: 13mph
Humidity: 89%   Direction: 200°SSW
Pressure: 30.21"   Gusts: NA
Location:  40.7991°N, 81.3409°W
Report Text: KCAK 221551Z 20011KT 2SM -RA BR OVC004 01/M01 A3021 RMK AO2 RAB35FZRAE35 SLP247 P0004 T00111006 $
Loading
Personal Weather Stations






























Interactive Weather Map New forecast layout! Learn more

10-Day Weather Forecast

Advertisements
Track Severe Weather on mobile